메인 페이지
METAR-TAF:

METAR-TAF

공항 :

니노이 아키노 국제공항

마닐라, 필리핀

위도: 14-31N, 경도: 121-00E, 고도: 14m

현재 날씨관측

예보는 1 시간 5분 전, 04:00시(UTC)에 발표되었습니다.
8kt북동풍과 남동풍을 오가는
온도 33°C
습도 46%
기압 1011 hPa
시정 10km 이상
고도 2500ft 상공 구름 조금

METAR: RPLL 150400Z 09008KT 050V140 9999 FEW025 33/20 Q1011 NOSIG RMK A2985

시각: 13:05 (05:05 UTC)

예보

예보는 6 시간 5분 전, 23:00시(UTC)에 발표되었습니다.
예보 대상 시간: 15일 00시부터 16일 06시까지 (UTC)
동남동7kt
시정 10km 이상
고도 2500ft 상공 구름 조금
일시적
15일 00시부터 15일 06시까지 (UTC)
12kt
고도 2500ft 상공 구름 조금
고도 10000ft 상공 구름 보통
일시적
15일 06시부터 15일 12시까지 (UTC)
동남동14kt
고도 2300ft 상공 구름 조금
고도 10000ft 상공 구름 많음

TAF: RPLL 142300Z 1500/1606 11007KT 9999 FEW025 TX33/1506Z TN26/1521Z TEMPO 1500/1506 10012KT FEW025 SCT100 TEMPO 1506/1512 11014KT FEW023 BKN100

4,000개 이상의 공항 관측 자료 및 예보 (METAR 및 TAF 보고).

지도상에서 검색 가능한 기상관측소가 노란 점과 빨간 점으로 표시되어 있습니다.

기상관측소 명을 보려면 표시 위로 마우스를 이동하세요.

날씨 관측과 예보를 보려면 클릭하세요.

지도 변경 : 확대하려면 엑스 표시가 있는 녹색 버튼, 축소하려면 빼기 표시가 있는 녹색 버튼, 다음 페이지의 지도를 보려면 녹색 화살표를 클릭하세요.


METAR-TAF: